sensor_id;sensor_type;location;lat;lon;timestamp;pressure;altitude;pressure_sealevel;temperature;humidity
34145;BME280;20422;53.014;8.886;2022-07-12T00:00:43;102403.81;;;15.80;100.00
34145;BME280;20422;53.014;8.886;2022-07-12T00:03:09;102396.75;;;15.78;100.00
34145;BME280;20422;53.014;8.886;2022-07-12T00:05:34;102394.84;;;15.65;100.00
34145;BME280;20422;53.014;8.886;2022-07-12T00:07:59;102401.00;;;15.67;100.00
34145;BME280;20422;53.014;8.886;2022-07-12T00:10:25;102397.25;;;15.70;100.00
34145;BME280;20422;53.014;8.886;2022-07-12T00:12:50;102396.47;;;15.68;100.00
34145;BME280;20422;53.014;8.886;2022-07-12T00:15:15;102401.31;;;15.63;100.00
34145;BME280;20422;53.014;8.886;2022-07-12T00:17:41;102410.09;;;15.66;100.00
34145;BME280;20422;53.014;8.886;2022-07-12T00:20:07;102391.00;;;15.54;100.00
34145;BME280;20422;53.014;8.886;2022-07-12T00:22:33;102407.75;;;15.60;100.00
34145;BME280;20422;53.014;8.886;2022-07-12T00:24:58;102399.88;;;15.56;100.00
34145;BME280;20422;53.014;8.886;2022-07-12T00:27:23;102406.00;;;15.59;100.00
34145;BME280;20422;53.014;8.886;2022-07-12T00:29:49;102397.72;;;15.62;100.00
34145;BME280;20422;53.014;8.886;2022-07-12T00:32:14;102390.03;;;15.55;100.00
34145;BME280;20422;53.014;8.886;2022-07-12T00:34:40;102386.38;;;15.56;100.00
34145;BME280;20422;53.014;8.886;2022-07-12T00:37:05;102393.41;;;15.58;100.00
34145;BME280;20422;53.014;8.886;2022-07-12T00:39:30;102396.88;;;15.62;100.00
34145;BME280;20422;53.014;8.886;2022-07-12T00:41:56;102390.50;;;15.63;100.00
34145;BME280;20422;53.014;8.886;2022-07-12T00:44:21;102390.72;;;15.58;100.00
34145;BME280;20422;53.014;8.886;2022-07-12T00:46:47;102386.28;;;15.57;100.00
34145;BME280;20422;53.014;8.886;2022-07-12T00:49:13;102383.97;;;15.51;100.00
34145;BME280;20422;53.014;8.886;2022-07-12T00:51:42;102384.06;;;15.50;100.00
34145;BME280;20422;53.014;8.886;2022-07-12T00:54:09;102372.56;;;15.32;100.00
34145;BME280;20422;53.014;8.886;2022-07-12T00:56:35;102379.69;;;15.33;100.00
34145;BME280;20422;53.014;8.886;2022-07-12T00:59:00;102378.81;;;15.32;100.00
34145;BME280;20422;53.014;8.886;2022-07-12T01:01:26;102379.41;;;15.37;100.00
34145;BME280;20422;53.014;8.886;2022-07-12T01:03:52;102380.47;;;15.35;100.00
34145;BME280;20422;53.014;8.886;2022-07-12T01:06:19;102370.44;;;15.37;100.00
34145;BME280;20422;53.014;8.886;2022-07-12T01:08:45;102368.47;;;15.25;100.00
34145;BME280;20422;53.014;8.886;2022-07-12T01:11:10;102378.16;;;15.29;100.00
34145;BME280;20422;53.014;8.886;2022-07-12T01:13:36;102359.09;;;15.16;100.00
34145;BME280;20422;53.014;8.886;2022-07-12T01:16:03;102367.00;;;15.19;100.00
34145;BME280;20422;53.014;8.886;2022-07-12T01:18:30;102353.50;;;15.19;100.00
34145;BME280;20422;53.014;8.886;2022-07-12T01:20:55;102347.72;;;15.11;100.00
34145;BME280;20422;53.014;8.886;2022-07-12T01:23:23;102346.94;;;15.09;100.00
34145;BME280;20422;53.014;8.886;2022-07-12T01:25:48;102358.78;;;15.06;100.00
34145;BME280;20422;53.014;8.886;2022-07-12T01:28:14;102360.13;;;14.99;100.00
34145;BME280;20422;53.014;8.886;2022-07-12T01:30:40;102358.47;;;14.97;100.00
34145;BME280;20422;53.014;8.886;2022-07-12T01:33:06;102358.38;;;14.98;100.00
34145;BME280;20422;53.014;8.886;2022-07-12T01:35:32;102352.47;;;14.92;100.00
34145;BME280;20422;53.014;8.886;2022-07-12T01:37:58;102364.56;;;15.00;100.00
34145;BME280;20422;53.014;8.886;2022-07-12T01:40:24;102361.94;;;14.99;100.00
34145;BME280;20422;53.014;8.886;2022-07-12T01:42:50;102355.03;;;15.09;100.00
34145;BME280;20422;53.014;8.886;2022-07-12T01:45:16;102364.00;;;15.09;100.00
34145;BME280;20422;53.014;8.886;2022-07-12T01:47:42;102368.25;;;15.14;100.00
34145;BME280;20422;53.014;8.886;2022-07-12T01:50:09;102331.16;;;14.87;100.00
34145;BME280;20422;53.014;8.886;2022-07-12T01:52:35;102364.47;;;15.02;100.00
34145;BME280;20422;53.014;8.886;2022-07-12T01:55:02;102364.38;;;15.03;100.00
34145;BME280;20422;53.014;8.886;2022-07-12T01:57:28;102373.94;;;15.09;100.00
34145;BME280;20422;53.014;8.886;2022-07-12T01:59:54;102370.19;;;15.11;100.00
34145;BME280;20422;53.014;8.886;2022-07-12T02:02:20;102370.19;;;15.11;100.00
34145;BME280;20422;53.014;8.886;2022-07-12T02:04:46;102373.75;;;15.12;100.00
34145;BME280;20422;53.014;8.886;2022-07-12T02:07:11;102363.91;;;15.11;100.00
34145;BME280;20422;53.014;8.886;2022-07-12T02:09:37;102372.88;;;15.11;100.00
34145;BME280;20422;53.014;8.886;2022-07-12T02:12:02;102365.84;;;15.09;100.00
34145;BME280;20422;53.014;8.886;2022-07-12T02:14:28;102375.69;;;15.10;100.00
34145;BME280;20422;53.014;8.886;2022-07-12T02:16:53;102387.16;;;15.14;100.00
34145;BME280;20422;53.014;8.886;2022-07-12T02:19:19;102387.06;;;15.15;100.00
34145;BME280;20422;53.014;8.886;2022-07-12T02:21:44;102395.34;;;15.12;100.00
34145;BME280;20422;53.014;8.886;2022-07-12T02:24:09;102379.34;;;15.09;100.00
34145;BME280;20422;53.014;8.886;2022-07-12T02:26:36;102393.34;;;15.16;100.00
34145;BME280;20422;53.014;8.886;2022-07-12T02:29:03;102395.06;;;15.17;100.00
34145;BME280;20422;53.014;8.886;2022-07-12T02:31:28;102396.47;;;15.08;100.00
34145;BME280;20422;53.014;8.886;2022-07-12T02:33:54;102398.94;;;15.13;100.00
34145;BME280;20422;53.014;8.886;2022-07-12T02:36:19;102396.41;;;15.09;100.00
34145;BME280;20422;53.014;8.886;2022-07-12T02:38:44;102409.34;;;15.19;100.00
34145;BME280;20422;53.014;8.886;2022-07-12T02:41:10;102413.13;;;15.16;100.00
34145;BME280;20422;53.014;8.886;2022-07-12T02:43:35;102403.13;;;15.02;100.00
34145;BME280;20422;53.014;8.886;2022-07-12T02:48:29;102422.66;;;15.22;100.00
34145;BME280;20422;53.014;8.886;2022-07-12T02:50:55;102422.94;;;15.17;100.00
34145;BME280;20422;53.014;8.886;2022-07-12T02:53:20;102429.41;;;15.15;100.00
34145;BME280;20422;53.014;8.886;2022-07-12T02:55:45;102424.09;;;15.13;100.00
34145;BME280;20422;53.014;8.886;2022-07-12T02:58:11;102429.50;;;15.13;100.00
34145;BME280;20422;53.014;8.886;2022-07-12T03:00:39;102423.41;;;15.09;100.00
34145;BME280;20422;53.014;8.886;2022-07-12T03:03:05;102441.66;;;15.20;100.00
34145;BME280;20422;53.014;8.886;2022-07-12T03:05:33;102430.47;;;15.12;100.00
34145;BME280;20422;53.014;8.886;2022-07-12T03:07:59;102441.84;;;15.17;100.00
34145;BME280;20422;53.014;8.886;2022-07-12T03:10:25;102425.84;;;15.14;100.00
34145;BME280;20422;53.014;8.886;2022-07-12T03:12:50;102427.19;;;15.21;100.00
34145;BME280;20422;53.014;8.886;2022-07-12T03:15:15;102438.09;;;15.20;100.00
34145;BME280;20422;53.014;8.886;2022-07-12T03:17:41;102428.75;;;15.25;100.00
34145;BME280;20422;53.014;8.886;2022-07-12T03:20:07;102439.22;;;15.31;100.00
34145;BME280;20422;53.014;8.886;2022-07-12T03:22:36;102441.13;;;15.29;100.00
34145;BME280;20422;53.014;8.886;2022-07-12T03:25:02;102426.34;;;15.21;100.00
34145;BME280;20422;53.014;8.886;2022-07-12T03:27:27;102430.44;;;15.28;100.00
34145;BME280;20422;53.014;8.886;2022-07-12T03:29:53;102428.69;;;15.27;100.00
34145;BME280;20422;53.014;8.886;2022-07-12T03:32:18;102433.13;;;15.28;100.00
34145;BME280;20422;53.014;8.886;2022-07-12T03:34:44;102438.44;;;15.29;100.00
34145;BME280;20422;53.014;8.886;2022-07-12T03:37:09;102431.44;;;15.25;100.00
34145;BME280;20422;53.014;8.886;2022-07-12T03:39:34;102434.00;;;15.28;100.00
34145;BME280;20422;53.014;8.886;2022-07-12T03:42:00;102438.25;;;15.32;100.00
34145;BME280;20422;53.014;8.886;2022-07-12T03:44:25;102433.38;;;15.23;100.00
34145;BME280;20422;53.014;8.886;2022-07-12T03:46:50;102440.09;;;15.32;100.00
34145;BME280;20422;53.014;8.886;2022-07-12T03:49:16;102437.56;;;15.29;100.00
34145;BME280;20422;53.014;8.886;2022-07-12T03:51:41;102444.72;;;15.30;100.00
34145;BME280;20422;53.014;8.886;2022-07-12T03:54:07;102435.03;;;15.26;100.00
34145;BME280;20422;53.014;8.886;2022-07-12T03:56:33;102446.06;;;15.37;100.00
34145;BME280;20422;53.014;8.886;2022-07-12T03:59:18;102440.47;;;15.40;100.00
34145;BME280;20422;53.014;8.886;2022-07-12T04:01:43;102438.63;;;15.40;100.00
34145;BME280;20422;53.014;8.886;2022-07-12T04:04:08;102442.22;;;15.41;100.00
34145;BME280;20422;53.014;8.886;2022-07-12T04:06:34;102451.09;;;15.43;100.00
34145;BME280;20422;53.014;8.886;2022-07-12T04:08:59;102444.13;;;15.39;100.00
34145;BME280;20422;53.014;8.886;2022-07-12T04:11:24;102451.09;;;15.43;100.00
34145;BME280;20422;53.014;8.886;2022-07-12T04:13:50;102441.63;;;15.36;100.00
34145;BME280;20422;53.014;8.886;2022-07-12T04:16:15;102453.88;;;15.41;100.00
34145;BME280;20422;53.014;8.886;2022-07-12T04:18:41;102434.50;;;15.35;100.00
34145;BME280;20422;53.014;8.886;2022-07-12T04:21:06;102454.03;;;15.54;100.00
34145;BME280;20422;53.014;8.886;2022-07-12T04:23:31;102451.41;;;15.53;100.00
34145;BME280;20422;53.014;8.886;2022-07-12T04:25:57;102451.31;;;15.54;100.00
34145;BME280;20422;53.014;8.886;2022-07-12T04:28:22;102449.50;;;15.55;100.00
34145;BME280;20422;53.014;8.886;2022-07-12T04:30:47;102446.97;;;15.52;100.00
34145;BME280;20422;53.014;8.886;2022-07-12T04:33:14;102422.56;;;15.53;100.00
34145;BME280;20422;53.014;8.886;2022-07-12T04:35:39;102439.06;;;15.49;100.00
34145;BME280;20422;53.014;8.886;2022-07-12T04:38:05;102437.13;;;15.51;100.00
34145;BME280;20422;53.014;8.886;2022-07-12T04:40:30;102441.88;;;15.47;100.00
34145;BME280;20422;53.014;8.886;2022-07-12T04:42:55;102440.25;;;15.59;100.00
34145;BME280;20422;53.014;8.886;2022-07-12T04:45:21;102430.16;;;15.62;100.00
34145;BME280;20422;53.014;8.886;2022-07-12T04:47:46;102436.75;;;15.57;100.00
34145;BME280;20422;53.014;8.886;2022-07-12T04:50:12;102441.66;;;15.66;100.00
34145;BME280;20422;53.014;8.886;2022-07-12T04:52:37;102438.75;;;15.69;100.00
34145;BME280;20422;53.014;8.886;2022-07-12T04:55:04;102435.75;;;15.74;100.00
34145;BME280;20422;53.014;8.886;2022-07-12T04:57:30;102435.94;;;15.70;100.00
34145;BME280;20422;53.014;8.886;2022-07-12T04:59:55;102447.09;;;15.80;100.00
34145;BME280;20422;53.014;8.886;2022-07-12T05:02:21;102465.81;;;15.83;100.00
34145;BME280;20422;53.014;8.886;2022-07-12T05:04:46;102468.41;;;15.85;100.00
34145;BME280;20422;53.014;8.886;2022-07-12T05:07:11;102464.66;;;15.87;100.00
34145;BME280;20422;53.014;8.886;2022-07-12T05:09:37;102468.41;;;15.85;100.00
34145;BME280;20422;53.014;8.886;2022-07-12T05:12:02;102479.13;;;15.86;100.00
34145;BME280;20422;53.014;8.886;2022-07-12T05:14:28;102464.13;;;15.66;100.00
34145;BME280;20422;53.014;8.886;2022-07-12T05:16:53;102478.03;;;15.75;100.00
34145;BME280;20422;53.014;8.886;2022-07-12T05:19:18;102487.97;;;15.74;100.00
34145;BME280;20422;53.014;8.886;2022-07-12T05:21:44;102394.03;;;15.19;100.00
34145;BME280;20422;53.014;8.886;2022-07-12T05:24:10;102490.50;;;15.77;100.00
34145;BME280;20422;53.014;8.886;2022-07-12T05:26:35;102490.81;;;15.87;100.00
34145;BME280;20422;53.014;8.886;2022-07-12T05:29:00;102484.16;;;15.92;100.00
34145;BME280;20422;53.014;8.886;2022-07-12T05:31:26;102481.53;;;15.91;100.00
34145;BME280;20422;53.014;8.886;2022-07-12T05:33:52;102468.91;;;16.06;100.00
34145;BME280;20422;53.014;8.886;2022-07-12T05:36:18;102463.78;;;16.01;100.00
34145;BME280;20422;53.014;8.886;2022-07-12T05:38:44;102478.09;;;16.17;100.00
34145;BME280;20422;53.014;8.886;2022-07-12T05:41:09;102483.13;;;16.23;100.00
34145;BME280;20422;53.014;8.886;2022-07-12T05:43:34;102475.00;;;16.38;100.00
34145;BME280;20422;53.014;8.886;2022-07-12T05:46:00;102475.66;;;16.41;100.00
34145;BME280;20422;53.014;8.886;2022-07-12T05:48:25;102471.22;;;16.40;100.00
34145;BME280;20422;53.014;8.886;2022-07-12T05:50:51;102469.19;;;16.44;100.00
34145;BME280;20422;53.014;8.886;2022-07-12T05:53:16;102458.66;;;16.39;100.00
34145;BME280;20422;53.014;8.886;2022-07-12T05:55:52;102476.34;;;16.45;100.00
34145;BME280;20422;53.014;8.886;2022-07-12T05:58:19;102485.41;;;16.58;100.00
34145;BME280;20422;53.014;8.886;2022-07-12T06:00:45;102469.06;;;16.59;100.00
34145;BME280;20422;53.014;8.886;2022-07-12T06:03:12;102478.38;;;16.55;100.00
34145;BME280;20422;53.014;8.886;2022-07-12T06:05:41;102486.38;;;16.57;100.00
34145;BME280;20422;53.014;8.886;2022-07-12T06:08:06;102474.28;;;16.62;100.00
34145;BME280;20422;53.014;8.886;2022-07-12T06:10:32;102484.03;;;16.65;100.00
34145;BME280;20422;53.014;8.886;2022-07-12T06:12:59;102486.47;;;16.55;100.00
34145;BME280;20422;53.014;8.886;2022-07-12T06:15:24;102483.97;;;16.52;100.00
34145;BME280;20422;53.014;8.886;2022-07-12T06:17:50;102484.91;;;16.51;100.00
34145;BME280;20422;53.014;8.886;2022-07-12T06:20:16;102477.59;;;16.53;100.00
34145;BME280;20422;53.014;8.886;2022-07-12T06:22:42;102488.78;;;16.76;100.00
34145;BME280;20422;53.014;8.886;2022-07-12T06:25:08;102480.44;;;16.93;100.00
34145;BME280;20422;53.014;8.886;2022-07-12T06:27:33;102486.81;;;17.19;100.00
34145;BME280;20422;53.014;8.886;2022-07-12T06:29:59;102478.84;;;17.70;100.00
34145;BME280;20422;53.014;8.886;2022-07-12T06:32:24;102485.34;;;18.69;93.59
34145;BME280;20422;53.014;8.886;2022-07-12T06:34:49;102476.94;;;19.68;89.13
34145;BME280;20422;53.014;8.886;2022-07-12T06:37:15;102477.94;;;19.67;88.39
34145;BME280;20422;53.014;8.886;2022-07-12T06:39:40;102487.66;;;19.23;87.70
34145;BME280;20422;53.014;8.886;2022-07-12T06:42:06;102477.41;;;19.97;85.64
34145;BME280;20422;53.014;8.886;2022-07-12T06:44:32;102481.38;;;20.26;82.38
34145;BME280;20422;53.014;8.886;2022-07-12T06:46:58;102464.53;;;20.10;82.26
34145;BME280;20422;53.014;8.886;2022-07-12T06:49:24;102487.81;;;20.14;83.73
34145;BME280;20422;53.014;8.886;2022-07-12T06:51:49;102483.22;;;20.37;83.53
34145;BME280;20422;53.014;8.886;2022-07-12T06:54:15;102472.09;;;20.17;81.64
34145;BME280;20422;53.014;8.886;2022-07-12T06:56:40;102464.47;;;20.99;80.45
34145;BME280;20422;53.014;8.886;2022-07-12T06:59:06;102460.44;;;21.58;77.95
34145;BME280;20422;53.014;8.886;2022-07-12T07:01:36;102467.59;;;22.00;75.83
34145;BME280;20422;53.014;8.886;2022-07-12T07:04:03;102463.97;;;22.21;75.04
34145;BME280;20422;53.014;8.886;2022-07-12T07:06:30;102457.50;;;23.12;72.42
34145;BME280;20422;53.014;8.886;2022-07-12T07:08:57;102455.66;;;23.41;71.01
34145;BME280;20422;53.014;8.886;2022-07-12T07:11:23;102463.00;;;23.70;68.92
34145;BME280;20422;53.014;8.886;2022-07-12T07:13:50;102459.41;;;24.16;69.19
34145;BME280;20422;53.014;8.886;2022-07-12T07:16:16;102457.00;;;24.03;67.62
34145;BME280;20422;53.014;8.886;2022-07-12T07:18:43;102453.59;;;23.92;68.02
34145;BME280;20422;53.014;8.886;2022-07-12T07:21:09;102455.38;;;25.56;63.46
34145;BME280;20422;53.014;8.886;2022-07-12T07:23:36;102455.53;;;26.58;61.08
34145;BME280;20422;53.014;8.886;2022-07-12T07:26:03;102446.41;;;27.00;58.67
34145;BME280;20422;53.014;8.886;2022-07-12T07:28:29;102444.44;;;26.08;60.40
34145;BME280;20422;53.014;8.886;2022-07-12T07:30:56;102447.75;;;24.96;64.23
34145;BME280;20422;53.014;8.886;2022-07-12T07:33:25;102443.56;;;24.75;64.53
34145;BME280;20422;53.014;8.886;2022-07-12T07:35:52;102444.34;;;24.67;65.54
34145;BME280;20422;53.014;8.886;2022-07-12T07:38:19;102453.63;;;24.56;67.30
34145;BME280;20422;53.014;8.886;2022-07-12T07:40:46;102448.28;;;23.42;70.06
34145;BME280;20422;53.014;8.886;2022-07-12T07:43:12;102433.72;;;23.51;68.50
34145;BME280;20422;53.014;8.886;2022-07-12T07:45:38;102453.03;;;23.69;70.08
34145;BME280;20422;53.014;8.886;2022-07-12T07:48:05;102451.59;;;23.65;71.12
34145;BME280;20422;53.014;8.886;2022-07-12T07:50:31;102447.44;;;23.70;69.71
34145;BME280;20422;53.014;8.886;2022-07-12T07:52:58;102445.72;;;24.16;68.90
34145;BME280;20422;53.014;8.886;2022-07-12T07:55:24;102463.28;;;23.76;69.36
34145;BME280;20422;53.014;8.886;2022-07-12T07:57:51;102456.34;;;23.43;68.68
34145;BME280;20422;53.014;8.886;2022-07-12T08:00:17;102459.94;;;23.92;69.66
34145;BME280;20422;53.014;8.886;2022-07-12T08:02:44;102459.47;;;24.06;68.97
34145;BME280;20422;53.014;8.886;2022-07-12T08:05:11;102448.59;;;24.15;67.11
34145;BME280;20422;53.014;8.886;2022-07-12T08:07:37;102445.03;;;24.41;67.82
34145;BME280;20422;53.014;8.886;2022-07-12T08:10:04;102464.06;;;24.98;65.91
34145;BME280;20422;53.014;8.886;2022-07-12T08:12:31;102460.00;;;25.55;64.88
34145;BME280;20422;53.014;8.886;2022-07-12T08:14:58;102464.16;;;26.03;62.37
34145;BME280;20422;53.014;8.886;2022-07-12T08:17:25;102471.53;;;26.03;63.11
34145;BME280;20422;53.014;8.886;2022-07-12T08:19:51;102467.09;;;25.66;63.98
34145;BME280;20422;53.014;8.886;2022-07-12T08:22:20;102465.50;;;24.75;65.76
34145;BME280;20422;53.014;8.886;2022-07-12T08:24:46;102455.56;;;24.46;66.03
34145;BME280;20422;53.014;8.886;2022-07-12T08:27:13;102455.09;;;24.51;66.64
34145;BME280;20422;53.014;8.886;2022-07-12T08:29:39;102449.16;;;24.18;67.42
34145;BME280;20422;53.014;8.886;2022-07-12T08:32:05;102464.53;;;24.38;67.09
34145;BME280;20422;53.014;8.886;2022-07-12T08:34:31;102461.28;;;24.16;68.31
34145;BME280;20422;53.014;8.886;2022-07-12T08:36:57;102454.00;;;24.44;68.79
34145;BME280;20422;53.014;8.886;2022-07-12T08:39:23;102462.41;;;24.23;68.92
34145;BME280;20422;53.014;8.886;2022-07-12T08:41:49;102448.84;;;24.21;69.28
34145;BME280;20422;53.014;8.886;2022-07-12T08:44:16;102454.94;;;24.52;69.03
34145;BME280;20422;53.014;8.886;2022-07-12T08:46:42;102441.34;;;25.06;67.36
34145;BME280;20422;53.014;8.886;2022-07-12T08:49:09;102442.00;;;24.99;63.70
34145;BME280;20422;53.014;8.886;2022-07-12T08:51:36;102438.59;;;24.33;65.74
34145;BME280;20422;53.014;8.886;2022-07-12T08:54:10;102455.34;;;24.30;67.19
34145;BME280;20422;53.014;8.886;2022-07-12T08:56:40;102464.53;;;23.92;68.83
34145;BME280;20422;53.014;8.886;2022-07-12T09:01:51;102460.50;;;24.43;71.62
34145;BME280;20422;53.014;8.886;2022-07-12T09:04:25;102453.22;;;24.14;68.57
34145;BME280;20422;53.014;8.886;2022-07-12T09:06:51;102458.09;;;23.73;68.18
34145;BME280;20422;53.014;8.886;2022-07-12T09:11:55;102441.50;;;24.31;68.58
34145;BME280;20422;53.014;8.886;2022-07-12T09:14:21;102442.94;;;23.79;70.20
34145;BME280;20422;53.014;8.886;2022-07-12T09:19:24;102444.84;;;23.40;71.48
34145;BME280;20422;53.014;8.886;2022-07-12T09:21:52;102422.25;;;23.57;72.81
34145;BME280;20422;53.014;8.886;2022-07-12T09:24:19;102450.28;;;23.78;72.85
34145;BME280;20422;53.014;8.886;2022-07-12T09:26:45;102438.22;;;23.62;72.11
34145;BME280;20422;53.014;8.886;2022-07-12T09:29:12;102447.56;;;23.30;72.11
34145;BME280;20422;53.014;8.886;2022-07-12T09:31:47;102436.50;;;23.61;74.43
34145;BME280;20422;53.014;8.886;2022-07-12T09:34:33;102443.25;;;23.66;72.15
34145;BME280;20422;53.014;8.886;2022-07-12T09:37:18;102444.56;;;23.62;72.14
34145;BME280;20422;53.014;8.886;2022-07-12T09:39:45;102441.41;;;24.04;74.88
34145;BME280;20422;53.014;8.886;2022-07-12T09:42:13;102429.22;;;24.63;71.56
34145;BME280;20422;53.014;8.886;2022-07-12T09:44:44;102426.88;;;24.40;70.85
34145;BME280;20422;53.014;8.886;2022-07-12T09:47:11;102424.78;;;24.80;68.70
34145;BME280;20422;53.014;8.886;2022-07-12T09:49:40;102428.19;;;24.36;69.35
34145;BME280;20422;53.014;8.886;2022-07-12T09:52:13;102416.50;;;24.44;70.06
34145;BME280;20422;53.014;8.886;2022-07-12T09:54:41;102404.88;;;24.23;71.66
34145;BME280;20422;53.014;8.886;2022-07-12T09:57:19;102422.25;;;24.41;74.24
34145;BME280;20422;53.014;8.886;2022-07-12T09:59:45;102421.75;;;24.55;71.28
34145;BME280;20422;53.014;8.886;2022-07-12T10:02:13;102425.00;;;24.86;72.26
34145;BME280;20422;53.014;8.886;2022-07-12T10:04:40;102426.47;;;24.63;68.88
34145;BME280;20422;53.014;8.886;2022-07-12T10:07:07;102421.78;;;24.73;69.99
34145;BME280;20422;53.014;8.886;2022-07-12T10:09:35;102412.31;;;24.85;71.47
34145;BME280;20422;53.014;8.886;2022-07-12T10:12:01;102415.44;;;25.00;72.49
34145;BME280;20422;53.014;8.886;2022-07-12T10:14:27;102409.69;;;25.11;70.19
34145;BME280;20422;53.014;8.886;2022-07-12T10:16:53;102406.53;;;25.42;69.88
34145;BME280;20422;53.014;8.886;2022-07-12T10:19:29;102409.44;;;25.40;66.94
34145;BME280;20422;53.014;8.886;2022-07-12T10:21:58;102417.31;;;25.61;67.93
34145;BME280;20422;53.014;8.886;2022-07-12T10:26:56;102405.22;;;25.28;69.41
34145;BME280;20422;53.014;8.886;2022-07-12T10:29:22;102420.03;;;25.35;68.75
34145;BME280;20422;53.014;8.886;2022-07-12T10:31:47;102425.50;;;25.71;68.52
34145;BME280;20422;53.014;8.886;2022-07-12T10:34:23;102421.44;;;25.65;68.25
34145;BME280;20422;53.014;8.886;2022-07-12T10:39:22;102411.16;;;25.85;69.54
34145;BME280;20422;53.014;8.886;2022-07-12T10:44:43;102400.13;;;25.59;65.81
34145;BME280;20422;53.014;8.886;2022-07-12T10:47:10;102400.28;;;25.75;63.76
34145;BME280;20422;53.014;8.886;2022-07-12T10:49:43;102402.06;;;26.18;66.96
34145;BME280;20422;53.014;8.886;2022-07-12T10:54:46;102396.63;;;26.27;64.23
34145;BME280;20422;53.014;8.886;2022-07-12T10:57:15;102392.59;;;26.55;64.45
34145;BME280;20422;53.014;8.886;2022-07-12T10:59:41;102396.03;;;26.49;67.71
34145;BME280;20422;53.014;8.886;2022-07-12T11:02:07;102392.75;;;26.45;66.36
34145;BME280;20422;53.014;8.886;2022-07-12T11:04:32;102391.56;;;26.56;64.48
34145;BME280;20422;53.014;8.886;2022-07-12T11:07:01;102385.25;;;26.72;68.65
34145;BME280;20422;53.014;8.886;2022-07-12T11:09:27;102382.63;;;26.46;65.70
34145;BME280;20422;53.014;8.886;2022-07-12T11:11:53;102393.84;;;26.61;63.95
34145;BME280;20422;53.014;8.886;2022-07-12T11:14:26;102384.25;;;26.23;64.54
34145;BME280;20422;53.014;8.886;2022-07-12T11:16:53;102385.91;;;26.49;65.63
34145;BME280;20422;53.014;8.886;2022-07-12T11:19:37;102377.34;;;26.69;63.86
34145;BME280;20422;53.014;8.886;2022-07-12T11:22:03;102381.78;;;26.54;63.37
34145;BME280;20422;53.014;8.886;2022-07-12T11:24:30;102374.91;;;26.49;67.16
34145;BME280;20422;53.014;8.886;2022-07-12T11:26:56;102374.59;;;26.61;63.61
34145;BME280;20422;53.014;8.886;2022-07-12T11:29:22;102373.94;;;26.83;68.27
34145;BME280;20422;53.014;8.886;2022-07-12T11:31:48;102367.84;;;26.55;64.39
34145;BME280;20422;53.014;8.886;2022-07-12T11:34:25;102354.63;;;26.50;63.87
34145;BME280;20422;53.014;8.886;2022-07-12T11:36:55;102369.88;;;26.37;66.14
34145;BME280;20422;53.014;8.886;2022-07-12T11:39:31;102372.63;;;26.37;63.33
34145;BME280;20422;53.014;8.886;2022-07-12T11:41:56;102352.59;;;26.69;66.45
34145;BME280;20422;53.014;8.886;2022-07-12T11:44:41;102344.38;;;26.77;66.73
34145;BME280;20422;53.014;8.886;2022-07-12T11:47:07;102350.66;;;26.53;63.97
34145;BME280;20422;53.014;8.886;2022-07-12T11:49:32;102347.00;;;26.36;64.58
34145;BME280;20422;53.014;8.886;2022-07-12T11:51:58;102350.78;;;26.35;66.24
34145;BME280;20422;53.014;8.886;2022-07-12T11:54:26;102333.53;;;26.59;68.07
34145;BME280;20422;53.014;8.886;2022-07-12T11:57:24;102355.03;;;26.80;68.37
34145;BME280;20422;53.014;8.886;2022-07-12T11:59:50;102323.88;;;26.47;66.89
34145;BME280;20422;53.014;8.886;2022-07-12T12:02:16;102316.84;;;26.69;68.25
34145;BME280;20422;53.014;8.886;2022-07-12T12:04:52;102346.28;;;26.76;65.67
34145;BME280;20422;53.014;8.886;2022-07-12T12:07:20;102336.59;;;26.72;67.18
34145;BME280;20422;53.014;8.886;2022-07-12T12:10:00;102334.06;;;26.95;66.51
34145;BME280;20422;53.014;8.886;2022-07-12T12:12:26;102346.28;;;27.25;65.58
34145;BME280;20422;53.014;8.886;2022-07-12T12:14:51;102334.22;;;27.43;63.77
34145;BME280;20422;53.014;8.886;2022-07-12T12:17:17;102338.72;;;27.27;61.31
34145;BME280;20422;53.014;8.886;2022-07-12T12:19:42;102343.22;;;27.12;63.07
34145;BME280;20422;53.014;8.886;2022-07-12T12:22:36;102344.94;;;27.29;63.06
34145;BME280;20422;53.014;8.886;2022-07-12T12:25:03;102333.22;;;27.35;61.69
34145;BME280;20422;53.014;8.886;2022-07-12T12:27:29;102328.25;;;27.31;62.52
34145;BME280;20422;53.014;8.886;2022-07-12T12:30:05;102321.50;;;26.85;61.30
34145;BME280;20422;53.014;8.886;2022-07-12T12:32:45;102338.03;;;27.09;65.90
34145;BME280;20422;53.014;8.886;2022-07-12T12:35:12;102324.28;;;27.33;62.55
34145;BME280;20422;53.014;8.886;2022-07-12T12:37:38;102324.28;;;27.09;62.12
34145;BME280;20422;53.014;8.886;2022-07-12T12:40:04;102331.47;;;27.51;65.97
34145;BME280;20422;53.014;8.886;2022-07-12T12:42:30;102319.13;;;27.94;63.99
34145;BME280;20422;53.014;8.886;2022-07-12T12:44:56;102316.78;;;27.75;61.49
34145;BME280;20422;53.014;8.886;2022-07-12T12:47:21;102324.75;;;27.69;65.72
34145;BME280;20422;53.014;8.886;2022-07-12T12:49:56;102311.31;;;27.66;63.09
34145;BME280;20422;53.014;8.886;2022-07-12T12:52:26;102304.75;;;27.59;65.08
34145;BME280;20422;53.014;8.886;2022-07-12T12:54:52;102307.97;;;27.87;65.23
34145;BME280;20422;53.014;8.886;2022-07-12T12:57:17;102293.66;;;27.92;64.06
34145;BME280;20422;53.014;8.886;2022-07-12T12:59:43;102301.63;;;28.26;63.92
34145;BME280;20422;53.014;8.886;2022-07-12T13:02:08;102303.50;;;28.17;60.17
34145;BME280;20422;53.014;8.886;2022-07-12T13:04:34;102307.66;;;28.13;59.49